sensor_id;sensor_type;location;lat;lon;timestamp;pressure;altitude;pressure_sealevel;temperature;humidity
77954;BME280;67151;52.544;6.034;2023-03-01T00:00:05;103150;;;21.4;36.7
77954;BME280;67151;52.544;6.034;2023-03-01T00:54:35;103120;;;21.3;36.8
77954;BME280;67151;52.544;6.034;2023-03-01T00:54:51;103120;;;21.3;36.9
77954;BME280;67151;52.544;6.034;2023-03-01T00:55:05;103120;;;21.2;37
77954;BME280;67151;52.544;6.034;2023-03-01T00:55:20;103120;;;21.3;36.9
77954;BME280;67151;52.544;6.034;2023-03-01T00:55:35;103120;;;21.3;36.9
77954;BME280;67151;52.544;6.034;2023-03-01T00:55:50;103120;;;21.3;36.9
77954;BME280;67151;52.544;6.034;2023-03-01T00:56:06;103120;;;21.3;36.8
77954;BME280;67151;52.544;6.034;2023-03-01T00:56:20;103120;;;21.3;36.7
77954;BME280;67151;52.544;6.034;2023-03-01T00:56:35;103120;;;21.3;36.6
77954;BME280;67151;52.544;6.034;2023-03-01T00:56:50;103120;;;21.3;36.7
77954;BME280;67151;52.544;6.034;2023-03-01T00:57:05;103120;;;21.3;36.8
77954;BME280;67151;52.544;6.034;2023-03-01T00:57:20;103120;;;21.3;36.7
77954;BME280;67151;52.544;6.034;2023-03-01T00:57:35;103120;;;21.3;36.6
77954;BME280;67151;52.544;6.034;2023-03-01T00:57:50;103109.99999999999;;;21.3;36.7
77954;BME280;67151;52.544;6.034;2023-03-01T00:58:05;103120;;;21.3;36.9
77954;BME280;67151;52.544;6.034;2023-03-01T00:58:20;103120;;;21.3;36.7
77954;BME280;67151;52.544;6.034;2023-03-01T00:58:35;103120;;;21.3;36.7
77954;BME280;67151;52.544;6.034;2023-03-01T00:58:50;103109.99999999999;;;21.3;36.7
77954;BME280;67151;52.544;6.034;2023-03-01T00:59:05;103120;;;21.3;36.7
77954;BME280;67151;52.544;6.034;2023-03-01T00:59:20;103120;;;21.3;36.7
77954;BME280;67151;52.544;6.034;2023-03-01T00:59:35;103120;;;21.3;36.9
77954;BME280;67151;52.544;6.034;2023-03-01T00:59:50;103120;;;21.3;36.8
77954;BME280;67151;52.544;6.034;2023-03-01T01:00:06;103120;;;21.3;36.8
77954;BME280;67151;52.544;6.034;2023-03-01T01:00:20;103109.99999999999;;;21.3;36.9
77954;BME280;67151;52.544;6.034;2023-03-01T01:00:35;103120;;;21.3;37
77954;BME280;67151;52.544;6.034;2023-03-01T01:00:50;103109.99999999999;;;21.2;36.7
77954;BME280;67151;52.544;6.034;2023-03-01T01:01:07;103109.99999999999;;;21.2;36.7
77954;BME280;67151;52.544;6.034;2023-03-01T01:01:21;103120;;;21.3;36.7
77954;BME280;67151;52.544;6.034;2023-03-01T01:01:35;103109.99999999999;;;21.3;36.6
77954;BME280;67151;52.544;6.034;2023-03-01T01:01:50;103109.99999999999;;;21.3;36.7
77954;BME280;67151;52.544;6.034;2023-03-01T01:02:05;103109.99999999999;;;21.3;36.7
77954;BME280;67151;52.544;6.034;2023-03-01T01:02:27;103109.99999999999;;;21.3;36.7
77954;BME280;67151;52.544;6.034;2023-03-01T01:02:35;103109.99999999999;;;21.3;36.7
77954;BME280;67151;52.544;6.034;2023-03-01T01:02:50;103109.99999999999;;;21.3;36.9
77954;BME280;67151;52.544;6.034;2023-03-01T01:03:05;103109.99999999999;;;21.3;36.8
77954;BME280;67151;52.544;6.034;2023-03-01T01:03:20;103109.99999999999;;;21.3;36.7
77954;BME280;67151;52.544;6.034;2023-03-01T01:03:35;103109.99999999999;;;21.3;36.7
77954;BME280;67151;52.544;6.034;2023-03-01T01:03:51;103109.99999999999;;;21.3;36.7
77954;BME280;67151;52.544;6.034;2023-03-01T01:04:06;103109.99999999999;;;21.3;36.7
77954;BME280;67151;52.544;6.034;2023-03-01T01:04:20;103109.99999999999;;;21.3;36.7
77954;BME280;67151;52.544;6.034;2023-03-01T01:04:35;103109.99999999999;;;21.3;36.7
77954;BME280;67151;52.544;6.034;2023-03-01T01:04:50;103120;;;21.3;36.6
77954;BME280;67151;52.544;6.034;2023-03-01T01:05:05;103120;;;21.3;36.8
77954;BME280;67151;52.544;6.034;2023-03-01T01:05:20;103109.99999999999;;;21.3;36.8
77954;BME280;67151;52.544;6.034;2023-03-01T01:05:35;103120;;;21.3;37
77954;BME280;67151;52.544;6.034;2023-03-01T01:05:50;103120;;;21.3;36.9
77954;BME280;67151;52.544;6.034;2023-03-01T01:06:05;103109.99999999999;;;21.3;36.9
77954;BME280;67151;52.544;6.034;2023-03-01T01:06:21;103120;;;21.3;36.7
77954;BME280;67151;52.544;6.034;2023-03-01T01:06:36;103109.99999999999;;;21.3;36.8
77954;BME280;67151;52.544;6.034;2023-03-01T01:06:50;103109.99999999999;;;21.2;36.8
77954;BME280;67151;52.544;6.034;2023-03-01T01:07:05;103109.99999999999;;;21.2;37
77954;BME280;67151;52.544;6.034;2023-03-01T01:07:20;103109.99999999999;;;21.2;36.8
77954;BME280;67151;52.544;6.034;2023-03-01T01:07:35;103120;;;21.2;36.8
77954;BME280;67151;52.544;6.034;2023-03-01T01:07:50;103120;;;21.2;37
77954;BME280;67151;52.544;6.034;2023-03-01T01:08:05;103120;;;21.3;36.9
77954;BME280;67151;52.544;6.034;2023-03-01T01:08:20;103109.99999999999;;;21.2;36.7
77954;BME280;67151;52.544;6.034;2023-03-01T01:08:35;103109.99999999999;;;21.3;36.6
77954;BME280;67151;52.544;6.034;2023-03-01T01:08:51;103109.99999999999;;;21.3;36.7
77954;BME280;67151;52.544;6.034;2023-03-01T01:09:06;103109.99999999999;;;21.3;36.7
77954;BME280;67151;52.544;6.034;2023-03-01T01:09:20;103109.99999999999;;;21.3;36.7
77954;BME280;67151;52.544;6.034;2023-03-01T01:09:35;103109.99999999999;;;21.3;36.8
77954;BME280;67151;52.544;6.034;2023-03-01T01:09:50;103109.99999999999;;;21.3;36.8
77954;BME280;67151;52.544;6.034;2023-03-01T01:10:05;103109.99999999999;;;21.2;36.7
77954;BME280;67151;52.544;6.034;2023-03-01T01:10:20;103109.99999999999;;;21.2;36.7
77954;BME280;67151;52.544;6.034;2023-03-01T01:10:35;103109.99999999999;;;21.2;36.8
77954;BME280;67151;52.544;6.034;2023-03-01T01:10:50;103120;;;21.2;36.8
77954;BME280;67151;52.544;6.034;2023-03-01T01:11:05;103109.99999999999;;;21.2;36.8
77954;BME280;67151;52.544;6.034;2023-03-01T01:11:20;103109.99999999999;;;21.2;36.9
77954;BME280;67151;52.544;6.034;2023-03-01T01:11:35;103109.99999999999;;;21.3;36.8
77954;BME280;67151;52.544;6.034;2023-03-01T01:11:50;103109.99999999999;;;21.3;36.7
77954;BME280;67151;52.544;6.034;2023-03-01T01:12:05;103109.99999999999;;;21.2;36.8
77954;BME280;67151;52.544;6.034;2023-03-01T01:12:20;103120;;;21.2;36.8
77954;BME280;67151;52.544;6.034;2023-03-01T01:12:35;103109.99999999999;;;21.2;36.8
77954;BME280;67151;52.544;6.034;2023-03-01T01:12:51;103109.99999999999;;;21.2;36.8
77954;BME280;67151;52.544;6.034;2023-03-01T01:13:05;103109.99999999999;;;21.2;36.8
77954;BME280;67151;52.544;6.034;2023-03-01T01:13:20;103109.99999999999;;;21.2;36.7
77954;BME280;67151;52.544;6.034;2023-03-01T01:13:35;103109.99999999999;;;21.2;36.8
77954;BME280;67151;52.544;6.034;2023-03-01T01:13:50;103100;;;21.2;36.8
77954;BME280;67151;52.544;6.034;2023-03-01T01:14:05;103109.99999999999;;;21.2;36.8
77954;BME280;67151;52.544;6.034;2023-03-01T01:14:20;103109.99999999999;;;21.2;36.8
77954;BME280;67151;52.544;6.034;2023-03-01T01:14:35;103120;;;21.2;36.9
77954;BME280;67151;52.544;6.034;2023-03-01T01:14:50;103100;;;21.2;36.8
77954;BME280;67151;52.544;6.034;2023-03-01T01:15:05;103109.99999999999;;;21.2;36.8
77954;BME280;67151;52.544;6.034;2023-03-01T01:15:20;103109.99999999999;;;21.2;37
77954;BME280;67151;52.544;6.034;2023-03-01T01:15:35;103109.99999999999;;;21.2;37.2
77954;BME280;67151;52.544;6.034;2023-03-01T01:15:50;103109.99999999999;;;21.2;36.8
77954;BME280;67151;52.544;6.034;2023-03-01T01:16:05;103109.99999999999;;;21.2;36.9
77954;BME280;67151;52.544;6.034;2023-03-01T01:16:21;103109.99999999999;;;21.2;36.8
77954;BME280;67151;52.544;6.034;2023-03-01T01:16:35;103109.99999999999;;;21.2;36.9
77954;BME280;67151;52.544;6.034;2023-03-01T01:16:50;103109.99999999999;;;21.2;36.9
77954;BME280;67151;52.544;6.034;2023-03-01T01:17:05;103109.99999999999;;;21.2;37
77954;BME280;67151;52.544;6.034;2023-03-01T01:17:20;103120;;;21.2;36.9
77954;BME280;67151;52.544;6.034;2023-03-01T01:17:35;103109.99999999999;;;21.2;36.9
77954;BME280;67151;52.544;6.034;2023-03-01T01:17:50;103109.99999999999;;;21.3;37.1
77954;BME280;67151;52.544;6.034;2023-03-01T01:18:05;103109.99999999999;;;21.3;37.2
77954;BME280;67151;52.544;6.034;2023-03-01T01:18:20;103109.99999999999;;;21.3;37.2
77954;BME280;67151;52.544;6.034;2023-03-01T01:18:35;103109.99999999999;;;21.2;36.9
77954;BME280;67151;52.544;6.034;2023-03-01T01:18:50;103120;;;21.2;36.9
77954;BME280;67151;52.544;6.034;2023-03-01T01:19:05;103109.99999999999;;;21.3;36.9
77954;BME280;67151;52.544;6.034;2023-03-01T01:19:20;103109.99999999999;;;21.3;36.9
77954;BME280;67151;52.544;6.034;2023-03-01T01:19:35;103109.99999999999;;;21.3;37
77954;BME280;67151;52.544;6.034;2023-03-01T01:20:27;103109.99999999999;;;21.3;36.9
77954;BME280;67151;52.544;6.034;2023-03-01T01:20:27;103109.99999999999;;;21.3;36.8
77954;BME280;67151;52.544;6.034;2023-03-01T01:20:27;103109.99999999999;;;21.3;36.9
77954;BME280;67151;52.544;6.034;2023-03-01T01:20:35;103109.99999999999;;;21.3;36.9
77954;BME280;67151;52.544;6.034;2023-03-01T01:20:50;103109.99999999999;;;21.3;36.8
77954;BME280;67151;52.544;6.034;2023-03-01T01:21:06;103109.99999999999;;;21.3;36.9
77954;BME280;67151;52.544;6.034;2023-03-01T01:21:22;103109.99999999999;;;21.3;36.9
77954;BME280;67151;52.544;6.034;2023-03-01T01:21:35;103109.99999999999;;;21.3;36.9
77954;BME280;67151;52.544;6.034;2023-03-01T01:21:50;103109.99999999999;;;21.3;36.9
77954;BME280;67151;52.544;6.034;2023-03-01T01:22:05;103120;;;21.3;36.9
77954;BME280;67151;52.544;6.034;2023-03-01T01:22:20;103109.99999999999;;;21.3;37
77954;BME280;67151;52.544;6.034;2023-03-01T01:22:35;103109.99999999999;;;21.3;36.9
77954;BME280;67151;52.544;6.034;2023-03-01T01:22:50;103109.99999999999;;;21.3;37
77954;BME280;67151;52.544;6.034;2023-03-01T01:23:05;103100;;;21.3;37.1
77954;BME280;67151;52.544;6.034;2023-03-01T01:23:20;103109.99999999999;;;21.3;37.1
77954;BME280;67151;52.544;6.034;2023-03-01T01:23:35;103100;;;21.3;37
77954;BME280;67151;52.544;6.034;2023-03-01T01:23:50;103100;;;21.3;37.1
77954;BME280;67151;52.544;6.034;2023-03-01T01:24:05;103100;;;21.3;36.9
77954;BME280;67151;52.544;6.034;2023-03-01T01:24:20;103109.99999999999;;;21.3;36.9
77954;BME280;67151;52.544;6.034;2023-03-01T01:24:35;103109.99999999999;;;21.3;37
77954;BME280;67151;52.544;6.034;2023-03-01T01:24:50;103100;;;21.3;37
77954;BME280;67151;52.544;6.034;2023-03-01T01:25:05;103100;;;21.3;37.1
77954;BME280;67151;52.544;6.034;2023-03-01T01:25:20;103100;;;21.3;36.9
77954;BME280;67151;52.544;6.034;2023-03-01T01:25:35;103100;;;21.3;36.9
77954;BME280;67151;52.544;6.034;2023-03-01T01:25:50;103100;;;21.3;36.9
77954;BME280;67151;52.544;6.034;2023-03-01T01:26:05;103100;;;21.3;37
77954;BME280;67151;52.544;6.034;2023-03-01T01:26:21;103100;;;21.3;37
77954;BME280;67151;52.544;6.034;2023-03-01T01:26:35;103100;;;21.3;36.9
77954;BME280;67151;52.544;6.034;2023-03-01T01:26:50;103100;;;21.3;36.9
77954;BME280;67151;52.544;6.034;2023-03-01T01:27:05;103100;;;21.3;36.7
77954;BME280;67151;52.544;6.034;2023-03-01T01:27:20;103109.99999999999;;;21.3;36.8
77954;BME280;67151;52.544;6.034;2023-03-01T01:27:35;103100;;;21.3;36.8
77954;BME280;67151;52.544;6.034;2023-03-01T01:27:50;103100;;;21.3;36.9
77954;BME280;67151;52.544;6.034;2023-03-01T01:28:05;103100;;;21.3;36.9
77954;BME280;67151;52.544;6.034;2023-03-01T01:28:20;103100;;;21.3;36.9
77954;BME280;67151;52.544;6.034;2023-03-01T01:28:35;103100;;;21.3;36.8
77954;BME280;67151;52.544;6.034;2023-03-01T01:28:50;103109.99999999999;;;21.3;36.9
77954;BME280;67151;52.544;6.034;2023-03-01T01:29:05;103100;;;21.3;36.9
77954;BME280;67151;52.544;6.034;2023-03-01T01:29:20;103100;;;21.3;36.9
77954;BME280;67151;52.544;6.034;2023-03-01T01:29:35;103100;;;21.3;36.9
77954;BME280;67151;52.544;6.034;2023-03-01T01:29:52;103109.99999999999;;;21.3;36.9
77954;BME280;67151;52.544;6.034;2023-03-01T01:30:05;103100;;;21.3;37.1
77954;BME280;67151;52.544;6.034;2023-03-01T01:30:20;103100;;;21.3;37
77954;BME280;67151;52.544;6.034;2023-03-01T01:30:35;103100;;;21.3;37
77954;BME280;67151;52.544;6.034;2023-03-01T01:30:50;103100;;;21.2;37
77954;BME280;67151;52.544;6.034;2023-03-01T01:31:05;103109.99999999999;;;21.2;36.8
77954;BME280;67151;52.544;6.034;2023-03-01T01:31:20;103109.99999999999;;;21.2;36.8
77954;BME280;67151;52.544;6.034;2023-03-01T01:31:36;103100;;;21.2;36.9
77954;BME280;67151;52.544;6.034;2023-03-01T01:31:50;103100;;;21.3;36.9
77954;BME280;67151;52.544;6.034;2023-03-01T01:32:05;103109.99999999999;;;21.2;37.1
77954;BME280;67151;52.544;6.034;2023-03-01T01:32:20;103100;;;21.3;37
77954;BME280;67151;52.544;6.034;2023-03-01T01:32:35;103100;;;21.2;37
77954;BME280;67151;52.544;6.034;2023-03-01T01:32:50;103109.99999999999;;;21.3;37
77954;BME280;67151;52.544;6.034;2023-03-01T01:33:05;103109.99999999999;;;21.3;37
77954;BME280;67151;52.544;6.034;2023-03-01T01:33:20;103109.99999999999;;;21.2;36.9
77954;BME280;67151;52.544;6.034;2023-03-01T01:33:36;103100;;;21.2;36.9
77954;BME280;67151;52.544;6.034;2023-03-01T01:33:50;103100;;;21.3;36.9
77954;BME280;67151;52.544;6.034;2023-03-01T01:34:06;103100;;;21.3;36.8
77954;BME280;67151;52.544;6.034;2023-03-01T01:34:21;103100;;;21.3;36.9
77954;BME280;67151;52.544;6.034;2023-03-01T01:34:35;103100;;;21.3;36.9
77954;BME280;67151;52.544;6.034;2023-03-01T01:34:50;103100;;;21.3;36.9
77954;BME280;67151;52.544;6.034;2023-03-01T01:35:05;103100;;;21.3;36.8
77954;BME280;67151;52.544;6.034;2023-03-01T01:35:20;103100;;;21.2;36.8
77954;BME280;67151;52.544;6.034;2023-03-01T01:35:35;103100;;;21.3;36.7
77954;BME280;67151;52.544;6.034;2023-03-01T01:35:50;103100;;;21.2;36.7
77954;BME280;67151;52.544;6.034;2023-03-01T01:36:05;103100;;;21.2;36.7
77954;BME280;67151;52.544;6.034;2023-03-01T01:36:20;103100;;;21.2;36.7
77954;BME280;67151;52.544;6.034;2023-03-01T01:36:35;103100;;;21.2;36.8
77954;BME280;67151;52.544;6.034;2023-03-01T01:36:51;103100;;;21.2;36.7
77954;BME280;67151;52.544;6.034;2023-03-01T01:37:05;103100;;;21.2;36.6
77954;BME280;67151;52.544;6.034;2023-03-01T01:37:20;103100;;;21.3;36.7
77954;BME280;67151;52.544;6.034;2023-03-01T01:37:35;103109.99999999999;;;21.3;36.7
77954;BME280;67151;52.544;6.034;2023-03-01T01:37:50;103100;;;21.2;36.6
77954;BME280;67151;52.544;6.034;2023-03-01T01:38:05;103100;;;21.2;36.5
77954;BME280;67151;52.544;6.034;2023-03-01T01:38:20;103100;;;21.2;36.6
77954;BME280;67151;52.544;6.034;2023-03-01T01:38:35;103090.00000000001;;;21.2;36.5
77954;BME280;67151;52.544;6.034;2023-03-01T01:38:50;103090.00000000001;;;21.2;36.6
77954;BME280;67151;52.544;6.034;2023-03-01T01:39:05;103100;;;21.2;36.6
77954;BME280;67151;52.544;6.034;2023-03-01T01:39:20;103100;;;21.2;36.5
77954;BME280;67151;52.544;6.034;2023-03-01T01:39:35;103100;;;21.2;36.6
77954;BME280;67151;52.544;6.034;2023-03-01T01:39:50;103100;;;21.2;36.6
77954;BME280;67151;52.544;6.034;2023-03-01T01:40:05;103090.00000000001;;;21.2;36.7
77954;BME280;67151;52.544;6.034;2023-03-01T01:40:20;103090.00000000001;;;21.2;36.7
77954;BME280;67151;52.544;6.034;2023-03-01T01:40:41;103090.00000000001;;;21.2;36.7
77954;BME280;67151;52.544;6.034;2023-03-01T01:40:50;103100;;;21.3;36.6
77954;BME280;67151;52.544;6.034;2023-03-01T01:41:05;103090.00000000001;;;21.3;36.7
77954;BME280;67151;52.544;6.034;2023-03-01T01:41:20;103090.00000000001;;;21.3;36.6
77954;BME280;67151;52.544;6.034;2023-03-01T01:41:35;103090.00000000001;;;21.3;36.6
77954;BME280;67151;52.544;6.034;2023-03-01T01:41:50;103090.00000000001;;;21.3;36.7
77954;BME280;67151;52.544;6.034;2023-03-01T01:42:05;103090.00000000001;;;21.2;36.7
77954;BME280;67151;52.544;6.034;2023-03-01T01:42:20;103090.00000000001;;;21.2;36.7
77954;BME280;67151;52.544;6.034;2023-03-01T01:42:35;103090.00000000001;;;21.2;36.7
77954;BME280;67151;52.544;6.034;2023-03-01T01:42:50;103090.00000000001;;;21.2;36.8
77954;BME280;67151;52.544;6.034;2023-03-01T01:43:07;103090.00000000001;;;21.2;36.7
77954;BME280;67151;52.544;6.034;2023-03-01T01:43:22;103090.00000000001;;;21.2;36.5
77954;BME280;67151;52.544;6.034;2023-03-01T01:43:36;103090.00000000001;;;21.2;36.6
77954;BME280;67151;52.544;6.034;2023-03-01T01:44:10;103090.00000000001;;;21.2;36.8
77954;BME280;67151;52.544;6.034;2023-03-01T01:44:14;103090.00000000001;;;21.2;36.6
77954;BME280;67151;52.544;6.034;2023-03-01T01:44:20;103090.00000000001;;;21.2;36.7
77954;BME280;67151;52.544;6.034;2023-03-01T01:44:36;103100;;;21.2;36.6
77954;BME280;67151;52.544;6.034;2023-03-01T01:45:15;103100;;;21.2;36.7
77954;BME280;67151;52.544;6.034;2023-03-01T01:45:27;103100;;;21.2;36.6
77954;BME280;67151;52.544;6.034;2023-03-01T01:45:35;103090.00000000001;;;21.2;36.5
77954;BME280;67151;52.544;6.034;2023-03-01T01:45:36;103090.00000000001;;;21.2;36.5
77954;BME280;67151;52.544;6.034;2023-03-01T01:45:50;103090.00000000001;;;21.2;36.5
77954;BME280;67151;52.544;6.034;2023-03-01T01:46:06;103090.00000000001;;;21.2;36.7
77954;BME280;67151;52.544;6.034;2023-03-01T01:46:21;103090.00000000001;;;21.2;36.7
77954;BME280;67151;52.544;6.034;2023-03-01T01:46:35;103090.00000000001;;;21.2;36.6
77954;BME280;67151;52.544;6.034;2023-03-01T01:46:51;103090.00000000001;;;21.2;36.7
77954;BME280;67151;52.544;6.034;2023-03-01T01:47:06;103090.00000000001;;;21.3;37
77954;BME280;67151;52.544;6.034;2023-03-01T01:47:20;103090.00000000001;;;21.2;37
77954;BME280;67151;52.544;6.034;2023-03-01T01:47:35;103080;;;21.2;36.8
77954;BME280;67151;52.544;6.034;2023-03-01T01:47:50;103090.00000000001;;;21.2;36.9
77954;BME280;67151;52.544;6.034;2023-03-01T01:48:06;103080;;;21.2;36.8
77954;BME280;67151;52.544;6.034;2023-03-01T01:48:21;103090.00000000001;;;21.2;36.7
77954;BME280;67151;52.544;6.034;2023-03-01T01:48:37;103090.00000000001;;;21.2;36.7
77954;BME280;67151;52.544;6.034;2023-03-01T01:48:52;103090.00000000001;;;21.2;36.8
77954;BME280;67151;52.544;6.034;2023-03-01T01:49:06;103090.00000000001;;;21.2;36.7
77954;BME280;67151;52.544;6.034;2023-03-01T01:49:22;103090.00000000001;;;21.2;36.8
77954;BME280;67151;52.544;6.034;2023-03-01T01:49:36;103090.00000000001;;;21.2;36.8
77954;BME280;67151;52.544;6.034;2023-03-01T01:49:51;103090.00000000001;;;21.2;36.9
77954;BME280;67151;52.544;6.034;2023-03-01T01:50:08;103080;;;21.2;36.7
77954;BME280;67151;52.544;6.034;2023-03-01T01:50:20;103090.00000000001;;;21.2;36.8
77954;BME280;67151;52.544;6.034;2023-03-01T01:50:35;103090.00000000001;;;21.2;36.8
77954;BME280;67151;52.544;6.034;2023-03-01T01:50:51;103080;;;21.2;37.1
77954;BME280;67151;52.544;6.034;2023-03-01T01:51:05;103090.00000000001;;;21.2;36.8
77954;BME280;67151;52.544;6.034;2023-03-01T01:51:22;103090.00000000001;;;21.2;36.7
77954;BME280;67151;52.544;6.034;2023-03-01T01:51:37;103080;;;21.2;36.7
77954;BME280;67151;52.544;6.034;2023-03-01T01:51:51;103080;;;21.2;36.7
77954;BME280;67151;52.544;6.034;2023-03-01T01:52:07;103090.00000000001;;;21.2;36.7
77954;BME280;67151;52.544;6.034;2023-03-01T01:52:21;103080;;;21.2;36.7
77954;BME280;67151;52.544;6.034;2023-03-01T01:52:35;103090.00000000001;;;21.2;36.7
77954;BME280;67151;52.544;6.034;2023-03-01T01:52:50;103080;;;21.2;36.7
77954;BME280;67151;52.544;6.034;2023-03-01T01:53:06;103090.00000000001;;;21.2;36.7
77954;BME280;67151;52.544;6.034;2023-03-01T01:53:20;103080;;;21.2;36.6
77954;BME280;67151;52.544;6.034;2023-03-01T01:53:35;103090.00000000001;;;21.2;36.7
77954;BME280;67151;52.544;6.034;2023-03-01T01:53:51;103080;;;21.2;36.6
77954;BME280;67151;52.544;6.034;2023-03-01T01:54:06;103080;;;21.2;36.7
77954;BME280;67151;52.544;6.034;2023-03-01T01:54:21;103080;;;21.2;36.8
77954;BME280;67151;52.544;6.034;2023-03-01T01:54:37;103080;;;21.2;36.7
77954;BME280;67151;52.544;6.034;2023-03-01T01:54:51;103080;;;21.2;36.7
77954;BME280;67151;52.544;6.034;2023-03-01T01:55:06;103080;;;21.2;36.7
77954;BME280;67151;52.544;6.034;2023-03-01T01:55:21;103090.00000000001;;;21.2;36.8
77954;BME280;67151;52.544;6.034;2023-03-01T01:55:35;103090.00000000001;;;21.2;36.7
77954;BME280;67151;52.544;6.034;2023-03-01T01:55:51;103080;;;21.2;36.7
77954;BME280;67151;52.544;6.034;2023-03-01T01:56:06;103080;;;21.2;36.8
77954;BME280;67151;52.544;6.034;2023-03-01T01:56:20;103080;;;21.2;36.7
77954;BME280;67151;52.544;6.034;2023-03-01T01:56:35;103080;;;21.2;36.7
77954;BME280;67151;52.544;6.034;2023-03-01T01:56:51;103080;;;21.2;36.7
77954;BME280;67151;52.544;6.034;2023-03-01T01:57:07;103080;;;21.2;36.4
77954;BME280;67151;52.544;6.034;2023-03-01T01:57:22;103080;;;21.2;36.5
77954;BME280;67151;52.544;6.034;2023-03-01T01:57:36;103080;;;21.2;36.7
77954;BME280;67151;52.544;6.034;2023-03-01T01:57:51;103080;;;21.2;36.8
77954;BME280;67151;52.544;6.034;2023-03-01T01:58:05;103070;;;21.2;36.8
77954;BME280;67151;52.544;6.034;2023-03-01T01:58:20;103080;;;21.2;36.6
77954;BME280;67151;52.544;6.034;2023-03-01T01:58:35;103070;;;21.2;36.7
77954;BME280;67151;52.544;6.034;2023-03-01T01:58:50;103070;;;21.2;36.6
77954;BME280;67151;52.544;6.034;2023-03-01T01:59:05;103080;;;21.2;36.7
77954;BME280;67151;52.544;6.034;2023-03-01T01:59:20;103070;;;21.2;36.7
77954;BME280;67151;52.544;6.034;2023-03-01T01:59:35;103070;;;21.2;36.7
77954;BME280;67151;52.544;6.034;2023-03-01T01:59:50;103070;;;21.3;36.7
77954;BME280;67151;52.544;6.034;2023-03-01T02:00:06;103080;;;21.2;36.7
77954;BME280;67151;52.544;6.034;2023-03-01T02:00:21;103080;;;21.2;36.7
77954;BME280;67151;52.544;6.034;2023-03-01T02:00:35;103080;;;21.2;36.7
77954;BME280;67151;52.544;6.034;2023-03-01T02:00:50;103080;;;21.2;36.7
77954;BME280;67151;52.544;6.034;2023-03-01T02:01:05;103070;;;21.2;36.8
77954;BME280;67151;52.544;6.034;2023-03-01T02:01:20;103080;;;21.2;37
77954;BME280;67151;52.544;6.034;2023-03-01T02:01:35;103080;;;21.2;36.8
77954;BME280;67151;52.544;6.034;2023-03-01T02:01:50;103080;;;21.3;36.7
77954;BME280;67151;52.544;6.034;2023-03-01T02:02:05;103080;;;21.2;36.6
77954;BME280;67151;52.544;6.034;2023-03-01T02:02:20;103070;;;21.2;36.7
77954;BME280;67151;52.544;6.034;2023-03-01T02:02:35;103070;;;21.2;36.7
77954;BME280;67151;52.544;6.034;2023-03-01T02:02:51;103080;;;21.2;36.5
77954;BME280;67151;52.544;6.034;2023-03-01T02:03:07;103070;;;21.2;36.6
77954;BME280;67151;52.544;6.034;2023-03-01T02:03:21;103070;;;21.2;36.8
77954;BME280;67151;52.544;6.034;2023-03-01T02:03:36;103070;;;21.2;36.8
77954;BME280;67151;52.544;6.034;2023-03-01T02:03:50;103070;;;21.2;36.7
77954;BME280;67151;52.544;6.034;2023-03-01T02:04:05;103080;;;21.2;36.7
77954;BME280;67151;52.544;6.034;2023-03-01T02:04:20;103080;;;21.2;36.8
77954;BME280;67151;52.544;6.034;2023-03-01T02:04:35;103070;;;21.2;36.7
77954;BME280;67151;52.544;6.034;2023-03-01T02:04:52;103070;;;21.2;36.8
77954;BME280;67151;52.544;6.034;2023-03-01T02:05:06;103070;;;21.2;36.7
77954;BME280;67151;52.544;6.034;2023-03-01T02:05:21;103070;;;21.2;36.9
77954;BME280;67151;52.544;6.034;2023-03-01T02:05:36;103080;;;21.2;36.9
77954;BME280;67151;52.544;6.034;2023-03-01T02:05:51;103059.99999999999;;;21.2;36.8
77954;BME280;67151;52.544;6.034;2023-03-01T02:06:06;103070;;;21.2;36.9
77954;BME280;67151;52.544;6.034;2023-03-01T02:06:21;103070;;;21.2;37
77954;BME280;67151;52.544;6.034;2023-03-01T02:06:36;103059.99999999999;;;21.2;36.8
77954;BME280;67151;52.544;6.034;2023-03-01T02:06:51;103059.99999999999;;;21.2;36.8
77954;BME280;67151;52.544;6.034;2023-03-01T02:07:06;103070;;;21.2;36.8
77954;BME280;67151;52.544;6.034;2023-03-01T02:07:20;103059.99999999999;;;21.2;36.8
77954;BME280;67151;52.544;6.034;2023-03-01T02:07:35;103059.99999999999;;;21.2;36.7
77954;BME280;67151;52.544;6.034;2023-03-01T02:07:50;103059.99999999999;;;21.2;36.7
77954;BME280;67151;52.544;6.034;2023-03-01T02:08:05;103059.99999999999;;;21.2;36.8
77954;BME280;67151;52.544;6.034;2023-03-01T02:08:20;103070;;;21.2;36.8
77954;BME280;67151;52.544;6.034;2023-03-01T02:08:36;103070;;;21.2;36.8
77954;BME280;67151;52.544;6.034;2023-03-01T02:08:50;103070;;;21.2;36.8
77954;BME280;67151;52.544;6.034;2023-03-01T02:09:07;103070;;;21.2;36.8
77954;BME280;67151;52.544;6.034;2023-03-01T02:09:20;103059.99999999999;;;21.2;36.8
77954;BME280;67151;52.544;6.034;2023-03-01T02:09:35;103059.99999999999;;;21.2;36.8
77954;BME280;67151;52.544;6.034;2023-03-01T02:09:51;103070;;;21.2;36.8
77954;BME280;67151;52.544;6.034;2023-03-01T02:10:05;103070;;;21.2;36.6
77954;BME280;67151;52.544;6.034;2023-03-01T02:10:20;103070;;;21.2;36.7
77954;BME280;67151;52.544;6.034;2023-03-01T02:10:35;103070;;;21.1;36.8
77954;BME280;67151;52.544;6.034;2023-03-01T02:10:50;103070;;;21.2;37
77954;BME280;67151;52.544;6.034;2023-03-01T02:11:05;103070;;;21.2;37
77954;BME280;67151;52.544;6.034;2023-03-01T02:11:20;103080;;;21.2;36.7
77954;BME280;67151;52.544;6.034;2023-03-01T02:11:35;103070;;;21.2;36.6
77954;BME280;67151;52.544;6.034;2023-03-01T02:11:50;103070;;;21.2;36.6
77954;BME280;67151;52.544;6.034;2023-03-01T02:12:05;103070;;;21.1;36.6